sensor_id;sensor_type;location;lat;lon;timestamp;temperature;humidity
30534;DHT22;17318;52.390;9.754;2023-03-11T00:01:05;3.40;99.90
30534;DHT22;17318;52.390;9.754;2023-03-11T00:03:30;3.30;99.90
30534;DHT22;17318;52.390;9.754;2023-03-11T00:06:00;3.20;99.90
30534;DHT22;17318;52.390;9.754;2023-03-11T00:08:26;3.30;99.90
30534;DHT22;17318;52.390;9.754;2023-03-11T00:10:57;3.20;99.90
30534;DHT22;17318;52.390;9.754;2023-03-11T00:13:25;3.20;99.90
30534;DHT22;17318;52.390;9.754;2023-03-11T00:15:52;3.10;99.90
30534;DHT22;17318;52.390;9.754;2023-03-11T00:18:23;3.20;99.90
30534;DHT22;17318;52.390;9.754;2023-03-11T00:20:51;3.30;99.90
30534;DHT22;17318;52.390;9.754;2023-03-11T00:23:17;3.20;99.90
30534;DHT22;17318;52.390;9.754;2023-03-11T00:25:45;3.40;99.90
30534;DHT22;17318;52.390;9.754;2023-03-11T00:28:12;3.20;99.90
30534;DHT22;17318;52.390;9.754;2023-03-11T00:30:39;3.30;99.90
30534;DHT22;17318;52.390;9.754;2023-03-11T00:33:06;3.20;99.90
30534;DHT22;17318;52.390;9.754;2023-03-11T00:35:33;3.10;99.90
30534;DHT22;17318;52.390;9.754;2023-03-11T00:38:02;3.20;99.90
30534;DHT22;17318;52.390;9.754;2023-03-11T00:40:30;3.10;99.90
30534;DHT22;17318;52.390;9.754;2023-03-11T00:42:57;3.10;99.90
30534;DHT22;17318;52.390;9.754;2023-03-11T00:45:23;3.30;99.90
30534;DHT22;17318;52.390;9.754;2023-03-11T00:47:50;3.10;99.90
30534;DHT22;17318;52.390;9.754;2023-03-11T00:50:26;3.10;99.90
30534;DHT22;17318;52.390;9.754;2023-03-11T00:52:52;3.00;99.90
30534;DHT22;17318;52.390;9.754;2023-03-11T00:55:21;3.20;99.90
30534;DHT22;17318;52.390;9.754;2023-03-11T00:57:47;3.20;99.90
30534;DHT22;17318;52.390;9.754;2023-03-11T01:00:17;3.20;99.90
30534;DHT22;17318;52.390;9.754;2023-03-11T01:02:45;3.20;99.90
30534;DHT22;17318;52.390;9.754;2023-03-11T01:05:11;3.10;99.90
30534;DHT22;17318;52.390;9.754;2023-03-11T01:07:37;3.30;99.90
30534;DHT22;17318;52.390;9.754;2023-03-11T01:10:05;3.30;99.90
30534;DHT22;17318;52.390;9.754;2023-03-11T01:12:31;3.20;99.90
30534;DHT22;17318;52.390;9.754;2023-03-11T01:14:56;3.20;99.90
30534;DHT22;17318;52.390;9.754;2023-03-11T01:17:22;3.10;99.90
30534;DHT22;17318;52.390;9.754;2023-03-11T01:19:48;3.10;99.90
30534;DHT22;17318;52.390;9.754;2023-03-11T01:22:15;3.10;99.90
30534;DHT22;17318;52.390;9.754;2023-03-11T01:24:40;3.20;99.90
30534;DHT22;17318;52.390;9.754;2023-03-11T01:27:06;3.20;99.90
30534;DHT22;17318;52.390;9.754;2023-03-11T01:29:32;3.10;99.90
30534;DHT22;17318;52.390;9.754;2023-03-11T01:31:58;3.10;99.90
30534;DHT22;17318;52.390;9.754;2023-03-11T01:34:24;2.90;99.90
30534;DHT22;17318;52.390;9.754;2023-03-11T01:36:51;3.00;99.90
30534;DHT22;17318;52.390;9.754;2023-03-11T01:39:16;3.10;99.90
30534;DHT22;17318;52.390;9.754;2023-03-11T01:41:42;3.20;99.90
30534;DHT22;17318;52.390;9.754;2023-03-11T01:44:11;3.10;99.90
30534;DHT22;17318;52.390;9.754;2023-03-11T01:49:26;3.10;99.90
30534;DHT22;17318;52.390;9.754;2023-03-11T01:51:59;3.00;99.90
30534;DHT22;17318;52.390;9.754;2023-03-11T01:54:29;3.00;99.90
30534;DHT22;17318;52.390;9.754;2023-03-11T01:56:57;3.00;99.90
30534;DHT22;17318;52.390;9.754;2023-03-11T01:59:29;2.90;99.90
30534;DHT22;17318;52.390;9.754;2023-03-11T02:02:04;3.00;99.90
30534;DHT22;17318;52.390;9.754;2023-03-11T02:04:33;3.00;99.90
30534;DHT22;17318;52.390;9.754;2023-03-11T02:07:00;3.10;99.90
30534;DHT22;17318;52.390;9.754;2023-03-11T02:09:27;3.00;99.90
30534;DHT22;17318;52.390;9.754;2023-03-11T02:11:53;3.20;99.90
30534;DHT22;17318;52.390;9.754;2023-03-11T02:14:19;3.10;99.90
30534;DHT22;17318;52.390;9.754;2023-03-11T02:16:45;3.10;99.90
30534;DHT22;17318;52.390;9.754;2023-03-11T02:22:02;3.20;99.90
30534;DHT22;17318;52.390;9.754;2023-03-11T02:24:49;3.10;99.90
30534;DHT22;17318;52.390;9.754;2023-03-11T02:27:19;2.90;99.90
30534;DHT22;17318;52.390;9.754;2023-03-11T02:29:46;2.90;99.90
30534;DHT22;17318;52.390;9.754;2023-03-11T02:32:14;3.00;99.90
30534;DHT22;17318;52.390;9.754;2023-03-11T02:34:40;3.20;99.90
30534;DHT22;17318;52.390;9.754;2023-03-11T02:37:12;3.10;99.90
30534;DHT22;17318;52.390;9.754;2023-03-11T02:39:43;3.30;99.90
30534;DHT22;17318;52.390;9.754;2023-03-11T02:42:30;2.90;99.90
30534;DHT22;17318;52.390;9.754;2023-03-11T02:45:03;3.00;99.90
30534;DHT22;17318;52.390;9.754;2023-03-11T02:47:30;3.10;99.90
30534;DHT22;17318;52.390;9.754;2023-03-11T02:49:56;3.10;99.90
30534;DHT22;17318;52.390;9.754;2023-03-11T02:52:24;3.10;99.90
30534;DHT22;17318;52.390;9.754;2023-03-11T02:54:52;3.00;99.90
30534;DHT22;17318;52.390;9.754;2023-03-11T02:57:18;2.90;99.90
30534;DHT22;17318;52.390;9.754;2023-03-11T02:59:44;2.90;99.90
30534;DHT22;17318;52.390;9.754;2023-03-11T03:02:09;3.20;99.90
30534;DHT22;17318;52.390;9.754;2023-03-11T03:04:35;3.00;99.90
30534;DHT22;17318;52.390;9.754;2023-03-11T03:07:01;3.10;99.90
30534;DHT22;17318;52.390;9.754;2023-03-11T03:09:26;2.90;99.90
30534;DHT22;17318;52.390;9.754;2023-03-11T03:11:52;2.90;99.90
30534;DHT22;17318;52.390;9.754;2023-03-11T03:14:17;3.20;99.90
30534;DHT22;17318;52.390;9.754;2023-03-11T03:16:43;3.10;99.90
30534;DHT22;17318;52.390;9.754;2023-03-11T03:19:09;2.90;99.90
30534;DHT22;17318;52.390;9.754;2023-03-11T03:21:34;3.10;99.90
30534;DHT22;17318;52.390;9.754;2023-03-11T03:24:00;3.10;99.90
30534;DHT22;17318;52.390;9.754;2023-03-11T03:26:26;3.30;99.90
30534;DHT22;17318;52.390;9.754;2023-03-11T03:28:51;3.20;99.90
30534;DHT22;17318;52.390;9.754;2023-03-11T03:31:17;3.30;99.90
30534;DHT22;17318;52.390;9.754;2023-03-11T03:33:43;3.20;99.90
30534;DHT22;17318;52.390;9.754;2023-03-11T03:36:11;3.20;99.90
30534;DHT22;17318;52.390;9.754;2023-03-11T03:38:38;3.20;99.90
30534;DHT22;17318;52.390;9.754;2023-03-11T03:41:04;3.20;99.90
30534;DHT22;17318;52.390;9.754;2023-03-11T03:43:29;3.00;99.90
30534;DHT22;17318;52.390;9.754;2023-03-11T03:46:00;3.10;99.90
30534;DHT22;17318;52.390;9.754;2023-03-11T03:48:27;3.20;99.90
30534;DHT22;17318;52.390;9.754;2023-03-11T03:50:53;3.20;99.90
30534;DHT22;17318;52.390;9.754;2023-03-11T03:53:19;3.10;99.90
30534;DHT22;17318;52.390;9.754;2023-03-11T03:55:45;3.30;99.90
30534;DHT22;17318;52.390;9.754;2023-03-11T03:58:10;3.30;99.90
30534;DHT22;17318;52.390;9.754;2023-03-11T04:00:36;3.30;99.90
30534;DHT22;17318;52.390;9.754;2023-03-11T04:03:02;3.10;99.90
30534;DHT22;17318;52.390;9.754;2023-03-11T04:05:28;3.10;99.90
30534;DHT22;17318;52.390;9.754;2023-03-11T04:07:54;3.10;99.90
30534;DHT22;17318;52.390;9.754;2023-03-11T04:10:19;3.00;99.90
30534;DHT22;17318;52.390;9.754;2023-03-11T04:12:45;2.90;99.90
30534;DHT22;17318;52.390;9.754;2023-03-11T04:15:11;3.00;99.90
30534;DHT22;17318;52.390;9.754;2023-03-11T04:17:37;3.00;99.90
30534;DHT22;17318;52.390;9.754;2023-03-11T04:20:03;2.80;99.90
30534;DHT22;17318;52.390;9.754;2023-03-11T04:22:31;2.80;99.90
30534;DHT22;17318;52.390;9.754;2023-03-11T04:24:57;3.00;99.90
30534;DHT22;17318;52.390;9.754;2023-03-11T04:27:23;3.00;99.90
30534;DHT22;17318;52.390;9.754;2023-03-11T04:29:48;3.00;99.90
30534;DHT22;17318;52.390;9.754;2023-03-11T04:32:14;3.10;99.90
30534;DHT22;17318;52.390;9.754;2023-03-11T04:34:39;3.30;99.90
30534;DHT22;17318;52.390;9.754;2023-03-11T04:37:06;3.30;99.90
30534;DHT22;17318;52.390;9.754;2023-03-11T04:39:32;3.30;99.90
30534;DHT22;17318;52.390;9.754;2023-03-11T04:41:57;3.20;99.90
30534;DHT22;17318;52.390;9.754;2023-03-11T04:44:23;3.30;99.90
30534;DHT22;17318;52.390;9.754;2023-03-11T04:46:49;3.10;99.90
30534;DHT22;17318;52.390;9.754;2023-03-11T04:49:15;3.20;99.90
30534;DHT22;17318;52.390;9.754;2023-03-11T04:51:41;3.00;99.90
30534;DHT22;17318;52.390;9.754;2023-03-11T04:54:07;3.00;99.90
30534;DHT22;17318;52.390;9.754;2023-03-11T04:56:32;3.00;99.90
30534;DHT22;17318;52.390;9.754;2023-03-11T04:58:58;3.00;99.90
30534;DHT22;17318;52.390;9.754;2023-03-11T05:01:24;3.10;99.90
30534;DHT22;17318;52.390;9.754;2023-03-11T05:03:50;3.00;99.90
30534;DHT22;17318;52.390;9.754;2023-03-11T05:06:15;2.90;99.90
30534;DHT22;17318;52.390;9.754;2023-03-11T05:08:41;2.90;99.90
30534;DHT22;17318;52.390;9.754;2023-03-11T05:11:06;3.20;99.90
30534;DHT22;17318;52.390;9.754;2023-03-11T05:13:33;3.30;99.90
30534;DHT22;17318;52.390;9.754;2023-03-11T05:15:59;3.40;99.90
30534;DHT22;17318;52.390;9.754;2023-03-11T05:18:24;3.10;99.90
30534;DHT22;17318;52.390;9.754;2023-03-11T05:20:50;3.30;99.90
30534;DHT22;17318;52.390;9.754;2023-03-11T05:23:16;3.10;99.90
30534;DHT22;17318;52.390;9.754;2023-03-11T05:25:41;3.20;99.90
30534;DHT22;17318;52.390;9.754;2023-03-11T05:28:07;3.20;99.90
30534;DHT22;17318;52.390;9.754;2023-03-11T05:30:33;3.20;99.90
30534;DHT22;17318;52.390;9.754;2023-03-11T05:32:58;3.40;99.90
30534;DHT22;17318;52.390;9.754;2023-03-11T05:35:24;3.50;99.90
30534;DHT22;17318;52.390;9.754;2023-03-11T05:37:51;3.60;99.90
30534;DHT22;17318;52.390;9.754;2023-03-11T05:40:18;3.60;99.90
30534;DHT22;17318;52.390;9.754;2023-03-11T05:42:43;3.70;99.90
30534;DHT22;17318;52.390;9.754;2023-03-11T05:45:09;3.60;99.90
30534;DHT22;17318;52.390;9.754;2023-03-11T05:47:35;3.70;99.90
30534;DHT22;17318;52.390;9.754;2023-03-11T05:50:01;3.70;99.90
30534;DHT22;17318;52.390;9.754;2023-03-11T05:52:27;3.60;99.90
30534;DHT22;17318;52.390;9.754;2023-03-11T05:54:54;3.70;99.90
30534;DHT22;17318;52.390;9.754;2023-03-11T05:57:20;3.60;99.90
30534;DHT22;17318;52.390;9.754;2023-03-11T05:59:46;3.40;99.90
30534;DHT22;17318;52.390;9.754;2023-03-11T06:02:11;3.30;99.90
30534;DHT22;17318;52.390;9.754;2023-03-11T06:04:37;3.40;99.90
30534;DHT22;17318;52.390;9.754;2023-03-11T06:07:03;3.40;99.90
30534;DHT22;17318;52.390;9.754;2023-03-11T06:09:29;3.40;99.90
30534;DHT22;17318;52.390;9.754;2023-03-11T06:11:54;3.40;99.90
30534;DHT22;17318;52.390;9.754;2023-03-11T06:14:20;3.50;99.90
30534;DHT22;17318;52.390;9.754;2023-03-11T06:16:46;3.40;99.90
30534;DHT22;17318;52.390;9.754;2023-03-11T06:19:12;3.50;99.90
30534;DHT22;17318;52.390;9.754;2023-03-11T06:21:37;3.40;99.90
30534;DHT22;17318;52.390;9.754;2023-03-11T06:24:03;3.30;99.90
30534;DHT22;17318;52.390;9.754;2023-03-11T06:26:29;3.40;99.90
30534;DHT22;17318;52.390;9.754;2023-03-11T06:28:55;3.30;99.90
30534;DHT22;17318;52.390;9.754;2023-03-11T06:31:23;3.30;99.90
30534;DHT22;17318;52.390;9.754;2023-03-11T06:33:53;3.20;99.90
30534;DHT22;17318;52.390;9.754;2023-03-11T06:36:20;3.40;99.90
30534;DHT22;17318;52.390;9.754;2023-03-11T06:38:46;3.30;99.90
30534;DHT22;17318;52.390;9.754;2023-03-11T06:41:13;3.30;99.90
30534;DHT22;17318;52.390;9.754;2023-03-11T06:43:39;3.20;99.90
30534;DHT22;17318;52.390;9.754;2023-03-11T06:46:14;3.20;99.90
30534;DHT22;17318;52.390;9.754;2023-03-11T06:48:40;3.40;99.90
30534;DHT22;17318;52.390;9.754;2023-03-11T06:51:05;3.60;99.90
30534;DHT22;17318;52.390;9.754;2023-03-11T06:53:31;3.60;99.90
30534;DHT22;17318;52.390;9.754;2023-03-11T06:56:09;3.60;99.90
30534;DHT22;17318;52.390;9.754;2023-03-11T06:58:36;3.50;99.90
30534;DHT22;17318;52.390;9.754;2023-03-11T07:01:17;3.70;99.90
30534;DHT22;17318;52.390;9.754;2023-03-11T07:03:45;3.70;99.90
30534;DHT22;17318;52.390;9.754;2023-03-11T07:06:16;3.60;99.90
30534;DHT22;17318;52.390;9.754;2023-03-11T07:08:43;3.80;99.90
30534;DHT22;17318;52.390;9.754;2023-03-11T07:11:16;4.00;99.90
30534;DHT22;17318;52.390;9.754;2023-03-11T07:13:43;4.00;99.90
30534;DHT22;17318;52.390;9.754;2023-03-11T07:16:20;3.80;99.90
30534;DHT22;17318;52.390;9.754;2023-03-11T07:18:47;3.70;99.90
30534;DHT22;17318;52.390;9.754;2023-03-11T07:21:14;3.90;99.90
30534;DHT22;17318;52.390;9.754;2023-03-11T07:23:42;3.70;99.90
30534;DHT22;17318;52.390;9.754;2023-03-11T07:26:12;3.70;99.90
30534;DHT22;17318;52.390;9.754;2023-03-11T07:28:38;3.70;99.90
30534;DHT22;17318;52.390;9.754;2023-03-11T07:31:17;3.50;99.90
30534;DHT22;17318;52.390;9.754;2023-03-11T07:33:44;3.70;99.90
30534;DHT22;17318;52.390;9.754;2023-03-11T07:36:15;3.70;99.90
30534;DHT22;17318;52.390;9.754;2023-03-11T07:38:41;3.70;99.90
30534;DHT22;17318;52.390;9.754;2023-03-11T07:41:09;3.80;99.90
30534;DHT22;17318;52.390;9.754;2023-03-11T07:43:38;3.60;99.90
30534;DHT22;17318;52.390;9.754;2023-03-11T07:46:07;3.70;99.90
30534;DHT22;17318;52.390;9.754;2023-03-11T07:48:34;3.80;99.90
30534;DHT22;17318;52.390;9.754;2023-03-11T07:51:26;3.70;99.90
30534;DHT22;17318;52.390;9.754;2023-03-11T07:53:54;3.80;99.90
30534;DHT22;17318;52.390;9.754;2023-03-11T07:56:22;3.70;99.90
30534;DHT22;17318;52.390;9.754;2023-03-11T07:58:49;3.70;99.90
30534;DHT22;17318;52.390;9.754;2023-03-11T08:01:17;3.90;99.90
30534;DHT22;17318;52.390;9.754;2023-03-11T08:03:44;3.80;99.90
30534;DHT22;17318;52.390;9.754;2023-03-11T08:06:12;4.00;99.90
30534;DHT22;17318;52.390;9.754;2023-03-11T08:08:39;4.00;99.90
30534;DHT22;17318;52.390;9.754;2023-03-11T08:11:04;3.90;99.90
30534;DHT22;17318;52.390;9.754;2023-03-11T08:13:32;4.10;99.90
30534;DHT22;17318;52.390;9.754;2023-03-11T08:15:57;4.20;99.90
30534;DHT22;17318;52.390;9.754;2023-03-11T08:18:23;4.00;99.90
30534;DHT22;17318;52.390;9.754;2023-03-11T08:20:48;4.00;99.90
30534;DHT22;17318;52.390;9.754;2023-03-11T08:23:14;4.00;99.90
30534;DHT22;17318;52.390;9.754;2023-03-11T08:25:40;4.10;99.90
30534;DHT22;17318;52.390;9.754;2023-03-11T08:28:07;4.10;99.90
30534;DHT22;17318;52.390;9.754;2023-03-11T08:30:33;4.50;99.90
30534;DHT22;17318;52.390;9.754;2023-03-11T08:32:59;4.40;99.90
30534;DHT22;17318;52.390;9.754;2023-03-11T08:35:25;4.60;99.90
30534;DHT22;17318;52.390;9.754;2023-03-11T08:37:51;4.70;99.90
30534;DHT22;17318;52.390;9.754;2023-03-11T08:40:17;4.90;99.90
30534;DHT22;17318;52.390;9.754;2023-03-11T08:42:43;4.90;99.90
30534;DHT22;17318;52.390;9.754;2023-03-11T08:45:09;5.20;99.90
30534;DHT22;17318;52.390;9.754;2023-03-11T08:47:36;5.20;99.90
30534;DHT22;17318;52.390;9.754;2023-03-11T08:50:05;5.00;99.50
30534;DHT22;17318;52.390;9.754;2023-03-11T08:52:31;5.20;99.90
30534;DHT22;17318;52.390;9.754;2023-03-11T08:54:57;5.30;99.90
30534;DHT22;17318;52.390;9.754;2023-03-11T08:57:23;5.20;99.50
30534;DHT22;17318;52.390;9.754;2023-03-11T08:59:48;5.50;99.90
30534;DHT22;17318;52.390;9.754;2023-03-11T09:02:14;5.40;99.20
30534;DHT22;17318;52.390;9.754;2023-03-11T09:04:40;5.90;99.50
30534;DHT22;17318;52.390;9.754;2023-03-11T09:07:05;6.80;97.70
30534;DHT22;17318;52.390;9.754;2023-03-11T09:09:31;6.70;97.60
30534;DHT22;17318;52.390;9.754;2023-03-11T09:11:56;7.20;96.80
30534;DHT22;17318;52.390;9.754;2023-03-11T09:14:22;6.70;97.10
30534;DHT22;17318;52.390;9.754;2023-03-11T09:16:48;6.80;96.80
30534;DHT22;17318;52.390;9.754;2023-03-11T09:19:13;7.00;96.30
30534;DHT22;17318;52.390;9.754;2023-03-11T09:21:39;8.40;97.30
30534;DHT22;17318;52.390;9.754;2023-03-11T09:24:06;9.80;95.10
30534;DHT22;17318;52.390;9.754;2023-03-11T09:26:32;10.80;94.50
30534;DHT22;17318;52.390;9.754;2023-03-11T09:28:57;11.30;92.40
30534;DHT22;17318;52.390;9.754;2023-03-11T09:31:23;11.60;92.10
30534;DHT22;17318;52.390;9.754;2023-03-11T09:33:49;11.80;91.30
30534;DHT22;17318;52.390;9.754;2023-03-11T09:36:18;12.10;91.80
30534;DHT22;17318;52.390;9.754;2023-03-11T09:38:45;12.90;92.00
30534;DHT22;17318;52.390;9.754;2023-03-11T09:44:11;13.20;86.50
30534;DHT22;17318;52.390;9.754;2023-03-11T09:52:24;15.50;79.70
30534;DHT22;17318;52.390;9.754;2023-03-11T09:54:52;15.90;79.90
30534;DHT22;17318;52.390;9.754;2023-03-11T09:57:23;16.30;77.60
30534;DHT22;17318;52.390;9.754;2023-03-11T09:59:50;16.30;78.30
30534;DHT22;17318;52.390;9.754;2023-03-11T10:02:21;16.30;74.70
30534;DHT22;17318;52.390;9.754;2023-03-11T10:07:32;15.50;73.90
30534;DHT22;17318;52.390;9.754;2023-03-11T10:09:58;14.70;74.40
30534;DHT22;17318;52.390;9.754;2023-03-11T10:20:41;14.80;72.30
30534;DHT22;17318;52.390;9.754;2023-03-11T10:23:25;14.20;72.00
30534;DHT22;17318;52.390;9.754;2023-03-11T10:28:38;14.20;70.30
30534;DHT22;17318;52.390;9.754;2023-03-11T10:31:20;15.00;74.00
30534;DHT22;17318;52.390;9.754;2023-03-11T10:33:55;14.70;70.90
30534;DHT22;17318;52.390;9.754;2023-03-11T10:36:25;14.40;70.00
30534;DHT22;17318;52.390;9.754;2023-03-11T10:38:54;15.30;70.80
30534;DHT22;17318;52.390;9.754;2023-03-11T10:41:29;15.90;70.60
30534;DHT22;17318;52.390;9.754;2023-03-11T10:46:25;17.30;68.20
30534;DHT22;17318;52.390;9.754;2023-03-11T10:48:51;17.50;63.30
30534;DHT22;17318;52.390;9.754;2023-03-11T10:51:19;18.30;67.40
30534;DHT22;17318;52.390;9.754;2023-03-11T10:53:52;19.30;63.80
30534;DHT22;17318;52.390;9.754;2023-03-11T10:56:33;19.40;60.50
30534;DHT22;17318;52.390;9.754;2023-03-11T10:59:00;18.80;58.60
30534;DHT22;17318;52.390;9.754;2023-03-11T11:01:27;18.30;57.40
30534;DHT22;17318;52.390;9.754;2023-03-11T11:03:55;16.10;59.30
30534;DHT22;17318;52.390;9.754;2023-03-11T11:06:26;17.30;61.10
30534;DHT22;17318;52.390;9.754;2023-03-11T11:09:05;16.80;58.80
30534;DHT22;17318;52.390;9.754;2023-03-11T11:11:31;17.50;58.60
30534;DHT22;17318;52.390;9.754;2023-03-11T11:14:00;18.00;59.10
30534;DHT22;17318;52.390;9.754;2023-03-11T11:16:26;17.20;57.30
30534;DHT22;17318;52.390;9.754;2023-03-11T11:19:02;17.60;58.70
30534;DHT22;17318;52.390;9.754;2023-03-11T11:21:32;18.40;57.10
30534;DHT22;17318;52.390;9.754;2023-03-11T11:26:25;18.20;57.50
30534;DHT22;17318;52.390;9.754;2023-03-11T11:29:12;17.60;55.10
30534;DHT22;17318;52.390;9.754;2023-03-11T11:31:48;17.60;56.50
30534;DHT22;17318;52.390;9.754;2023-03-11T11:36:51;18.20;54.90
30534;DHT22;17318;52.390;9.754;2023-03-11T11:39:19;17.90;55.30
30534;DHT22;17318;52.390;9.754;2023-03-11T11:41:47;18.40;56.00
30534;DHT22;17318;52.390;9.754;2023-03-11T11:44:18;18.20;54.80
30534;DHT22;17318;52.390;9.754;2023-03-11T11:47:16;16.80;56.40
30534;DHT22;17318;52.390;9.754;2023-03-11T11:49:54;18.30;56.10
30534;DHT22;17318;52.390;9.754;2023-03-11T11:52:27;18.40;55.50
30534;DHT22;17318;52.390;9.754;2023-03-11T11:55:16;15.70;55.70
30534;DHT22;17318;52.390;9.754;2023-03-11T11:57:44;15.10;58.50
30534;DHT22;17318;52.390;9.754;2023-03-11T12:00:22;15.30;60.40
30534;DHT22;17318;52.390;9.754;2023-03-11T12:05:57;14.70;59.70
30534;DHT22;17318;52.390;9.754;2023-03-11T12:11:06;13.70;60.20
30534;DHT22;17318;52.390;9.754;2023-03-11T12:16:46;13.10;62.70
30534;DHT22;17318;52.390;9.754;2023-03-11T12:19:28;12.70;63.70
30534;DHT22;17318;52.390;9.754;2023-03-11T12:27:56;12.10;65.60
30534;DHT22;17318;52.390;9.754;2023-03-11T12:30:32;12.20;67.40
30534;DHT22;17318;52.390;9.754;2023-03-11T12:33:08;12.00;66.40
30534;DHT22;17318;52.390;9.754;2023-03-11T12:35:35;11.60;66.40
30534;DHT22;17318;52.390;9.754;2023-03-11T12:41:02;11.40;67.30
30534;DHT22;17318;52.390;9.754;2023-03-11T12:46:04;11.20;70.10
30534;DHT22;17318;52.390;9.754;2023-03-11T12:48:35;11.10;70.10
30534;DHT22;17318;52.390;9.754;2023-03-11T12:51:01;10.80;70.30
30534;DHT22;17318;52.390;9.754;2023-03-11T12:53:47;10.40;71.20
30534;DHT22;17318;52.390;9.754;2023-03-11T13:04:56;9.60;74.90
30534;DHT22;17318;52.390;9.754;2023-03-11T13:07:40;9.50;74.20
30534;DHT22;17318;52.390;9.754;2023-03-11T13:10:14;9.40;75.30
30534;DHT22;17318;52.390;9.754;2023-03-11T13:12:43;9.80;76.00
30534;DHT22;17318;52.390;9.754;2023-03-11T13:30:58;9.10;75.50
30534;DHT22;17318;52.390;9.754;2023-03-11T13:41:52;8.80;77.70
30534;DHT22;17318;52.390;9.754;2023-03-11T13:46:46;8.70;78.10
30534;DHT22;17318;52.390;9.754;2023-03-11T13:49:38;8.90;79.40
30534;DHT22;17318;52.390;9.754;2023-03-11T13:52:14;9.10;78.90
30534;DHT22;17318;52.390;9.754;2023-03-11T13:54:47;8.70;77.30
30534;DHT22;17318;52.390;9.754;2023-03-11T13:57:29;8.60;80.80
30534;DHT22;17318;52.390;9.754;2023-03-11T13:59:56;8.50;79.30
30534;DHT22;17318;52.390;9.754;2023-03-11T14:02:25;8.50;77.70
30534;DHT22;17318;52.390;9.754;2023-03-11T14:05:14;8.70;78.60
30534;DHT22;17318;52.390;9.754;2023-03-11T14:07:41;8.70;77.70
30534;DHT22;17318;52.390;9.754;2023-03-11T14:12:39;8.20;77.90
30534;DHT22;17318;52.390;9.754;2023-03-11T14:15:07;8.40;79.40
30534;DHT22;17318;52.390;9.754;2023-03-11T14:17:33;8.50;79.00
30534;DHT22;17318;52.390;9.754;2023-03-11T14:20:09;8.50;79.30
30534;DHT22;17318;52.390;9.754;2023-03-11T14:22:36;8.50;79.70
30534;DHT22;17318;52.390;9.754;2023-03-11T14:25:08;8.40;79.30
30534;DHT22;17318;52.390;9.754;2023-03-11T14:27:36;8.40;79.10
30534;DHT22;17318;52.390;9.754;2023-03-11T14:30:03;8.30;78.80
30534;DHT22;17318;52.390;9.754;2023-03-11T14:32:32;8.30;79.50
30534;DHT22;17318;52.390;9.754;2023-03-11T14:34:58;8.00;77.90
30534;DHT22;17318;52.390;9.754;2023-03-11T14:37:37;8.00;79.10
30534;DHT22;17318;52.390;9.754;2023-03-11T14:40:31;8.10;78.70
30534;DHT22;17318;52.390;9.754;2023-03-11T14:43:00;8.00;78.80
30534;DHT22;17318;52.390;9.754;2023-03-11T14:45:29;7.80;78.70
30534;DHT22;17318;52.390;9.754;2023-03-11T14:48:06;7.70;77.30
30534;DHT22;17318;52.390;9.754;2023-03-11T14:50:35;7.60;78.50
30534;DHT22;17318;52.390;9.754;2023-03-11T14:53:25;7.70;79.30
30534;DHT22;17318;52.390;9.754;2023-03-11T14:56:03;7.80;80.00
30534;DHT22;17318;52.390;9.754;2023-03-11T14:58:42;8.10;80.70
30534;DHT22;17318;52.390;9.754;2023-03-11T15:03:53;8.10;79.50
30534;DHT22;17318;52.390;9.754;2023-03-11T15:06:26;8.00;79.70
30534;DHT22;17318;52.390;9.754;2023-03-11T15:08:59;8.20;79.00
30534;DHT22;17318;52.390;9.754;2023-03-11T15:11:26;7.80;78.00
30534;DHT22;17318;52.390;9.754;2023-03-11T15:13:54;7.70;79.50
30534;DHT22;17318;52.390;9.754;2023-03-11T15:16:35;7.70;80.40
30534;DHT22;17318;52.390;9.754;2023-03-11T15:19:19;7.80;80.00
30534;DHT22;17318;52.390;9.754;2023-03-11T15:21:50;7.90;80.00
30534;DHT22;17318;52.390;9.754;2023-03-11T15:24:21;7.60;79.10
30534;DHT22;17318;52.390;9.754;2023-03-11T15:27:26;7.70;79.80
30534;DHT22;17318;52.390;9.754;2023-03-11T15:29:53;7.60;80.10
30534;DHT22;17318;52.390;9.754;2023-03-11T15:37:33;7.50;79.70
30534;DHT22;17318;52.390;9.754;2023-03-11T15:40:19;7.30;80.80
30534;DHT22;17318;52.390;9.754;2023-03-11T15:42:47;7.30;80.70
30534;DHT22;17318;52.390;9.754;2023-03-11T15:45:16;7.40;81.40
30534;DHT22;17318;52.390;9.754;2023-03-11T15:47:43;7.30;80.80
30534;DHT22;17318;52.390;9.754;2023-03-11T15:50:14;7.40;81.30
30534;DHT22;17318;52.390;9.754;2023-03-11T15:52:41;7.20;80.80
30534;DHT22;17318;52.390;9.754;2023-03-11T15:55:09;7.10;81.20
30534;DHT22;17318;52.390;9.754;2023-03-11T15:57:36;7.10;81.60
30534;DHT22;17318;52.390;9.754;2023-03-11T16:00:03;7.40;81.00
30534;DHT22;17318;52.390;9.754;2023-03-11T16:02:30;7.50;81.10
30534;DHT22;17318;52.390;9.754;2023-03-11T16:04:57;7.60;82.30
30534;DHT22;17318;52.390;9.754;2023-03-11T16:07:23;7.40;81.30
30534;DHT22;17318;52.390;9.754;2023-03-11T16:09:48;7.40;81.30
30534;DHT22;17318;52.390;9.754;2023-03-11T16:12:19;7.40;81.60
30534;DHT22;17318;52.390;9.754;2023-03-11T16:14:46;7.30;81.90
30534;DHT22;17318;52.390;9.754;2023-03-11T16:17:13;6.90;82.90
30534;DHT22;17318;52.390;9.754;2023-03-11T16:19:46;7.20;83.80
30534;DHT22;17318;52.390;9.754;2023-03-11T16:22:17;7.20;83.70
30534;DHT22;17318;52.390;9.754;2023-03-11T16:24:45;6.90;83.20
30534;DHT22;17318;52.390;9.754;2023-03-11T16:27:16;6.90;83.90
30534;DHT22;17318;52.390;9.754;2023-03-11T16:29:43;6.80;83.80
30534;DHT22;17318;52.390;9.754;2023-03-11T16:32:09;6.80;83.80
30534;DHT22;17318;52.390;9.754;2023-03-11T16:34:37;6.90;83.70
30534;DHT22;17318;52.390;9.754;2023-03-11T16:37:07;7.00;83.60
30534;DHT22;17318;52.390;9.754;2023-03-11T16:39:33;6.90;84.00
30534;DHT22;17318;52.390;9.754;2023-03-11T16:41:58;6.80;83.70
30534;DHT22;17318;52.390;9.754;2023-03-11T16:44:24;6.90;83.60
30534;DHT22;17318;52.390;9.754;2023-03-11T16:46:50;6.90;83.10
30534;DHT22;17318;52.390;9.754;2023-03-11T16:49:16;6.90;83.50
30534;DHT22;17318;52.390;9.754;2023-03-11T16:51:41;6.90;83.30
30534;DHT22;17318;52.390;9.754;2023-03-11T16:54:07;7.00;83.50
30534;DHT22;17318;52.390;9.754;2023-03-11T16:56:33;6.80;83.30
30534;DHT22;17318;52.390;9.754;2023-03-11T16:58:59;6.90;83.60
30534;DHT22;17318;52.390;9.754;2023-03-11T17:01:25;6.90;83.60
30534;DHT22;17318;52.390;9.754;2023-03-11T17:03:51;6.90;83.80
30534;DHT22;17318;52.390;9.754;2023-03-11T17:06:18;6.60;84.10
30534;DHT22;17318;52.390;9.754;2023-03-11T17:08:45;6.70;84.40
30534;DHT22;17318;52.390;9.754;2023-03-11T17:11:18;6.80;84.80
30534;DHT22;17318;52.390;9.754;2023-03-11T17:13:44;6.70;84.80
30534;DHT22;17318;52.390;9.754;2023-03-11T17:16:10;6.70;84.90
30534;DHT22;17318;52.390;9.754;2023-03-11T17:18:36;6.70;85.00
30534;DHT22;17318;52.390;9.754;2023-03-11T17:21:10;6.70;84.80
30534;DHT22;17318;52.390;9.754;2023-03-11T17:23:36;6.70;84.70
30534;DHT22;17318;52.390;9.754;2023-03-11T17:26:11;6.80;85.30
30534;DHT22;17318;52.390;9.754;2023-03-11T17:28:37;6.70;85.00
30534;DHT22;17318;52.390;9.754;2023-03-11T17:31:05;6.70;85.50
30534;DHT22;17318;52.390;9.754;2023-03-11T17:33:34;6.60;85.60